Time;durP1;ratioP1;P1;durP2;ratioP2;P2;SDS_P1;SDS_P2;PMS_P1;PMS_P2;Temp;Humidity;BMP_temperature;BMP_pressure;BME280_temperature;BME280_humidity;BME280_pressure;Samples;Min_cycle;Max_cycle;Signal;HPM_P1;HPM_P2
2022/07/24 00:01:30;;;;;;;3.75;2.78;;;16.80;99.90;;;;;;5015913;28;20109;-82
2022/07/24 00:04:13;;;;;;;3.65;2.50;;;16.80;99.90;;;;;;5030705;28;20061;-82
2022/07/24 00:06:39;;;;;;;5.75;2.38;;;16.80;99.90;;;;;;4999029;28;20033;-81
2022/07/24 00:09:06;;;;;;;4.25;2.53;;;16.80;99.90;;;;;;4998835;28;20669;-81
2022/07/24 00:11:31;;;;;;;3.97;3.03;;;16.80;99.90;;;;;;5015512;28;20049;-81
2022/07/24 00:13:57;;;;;;;3.10;2.53;;;16.70;99.90;;;;;;4999187;28;20111;-81
2022/07/24 00:16:23;;;;;;;4.43;2.80;;;16.70;99.90;;;;;;5015263;28;20049;-81
2022/07/24 00:18:49;;;;;;;3.45;2.60;;;16.70;99.90;;;;;;5014692;28;20051;-82
2022/07/24 00:21:14;;;;;;;4.50;2.72;;;16.60;99.90;;;;;;5015416;28;20037;-81
2022/07/24 00:23:41;;;;;;;5.13;2.90;;;16.60;99.90;;;;;;4998653;28;20049;-81
2022/07/24 00:26:07;;;;;;;5.18;2.85;;;16.60;99.90;;;;;;5014331;28;20477;-82
2022/07/24 00:28:32;;;;;;;4.18;2.60;;;16.60;99.90;;;;;;4998711;28;20076;-82
2022/07/24 00:30:58;;;;;;;4.05;2.80;;;16.60;99.90;;;;;;5014505;28;20041;-82
2022/07/24 00:33:24;;;;;;;4.20;2.85;;;16.60;99.90;;;;;;4998178;28;20053;-81
2022/07/24 00:35:50;;;;;;;3.35;2.40;;;16.50;99.90;;;;;;4998207;28;20049;-81
2022/07/24 00:38:16;;;;;;;4.85;2.75;;;16.50;99.90;;;;;;5014731;28;20048;-81
2022/07/24 00:40:41;;;;;;;5.05;2.70;;;16.60;99.90;;;;;;4998057;28;20481;-81
2022/07/24 00:43:07;;;;;;;3.45;3.00;;;16.50;99.90;;;;;;5014013;28;20042;-82
2022/07/24 00:45:33;;;;;;;3.78;2.90;;;16.50;99.90;;;;;;5014547;28;20378;-81
2022/07/24 00:47:59;;;;;;;4.28;2.70;;;16.40;99.90;;;;;;5014120;28;20030;-81
2022/07/24 00:50:25;;;;;;;4.63;2.90;;;16.40;99.90;;;;;;5014207;28;20049;-81
2022/07/24 00:52:51;;;;;;;;;;;16.40;99.90;;;;;;4998485;28;21836;-81
2022/07/24 00:55:17;;;;;;;3.10;2.67;;;16.40;99.90;;;;;;5014809;28;19924;-81
2022/07/24 00:57:45;;;;;;;5.35;2.75;;;16.40;99.90;;;;;;4998272;28;20154;-81
2022/07/24 01:00:12;;;;;;;3.45;2.65;;;16.40;99.90;;;;;;4997450;28;20425;-81
2022/07/24 01:02:41;;;;;;;3.63;2.85;;;16.40;99.90;;;;;;5014406;28;20034;-81
2022/07/24 01:05:11;;;;;;;4.13;2.65;;;16.40;99.90;;;;;;5014396;28;20112;-80
2022/07/24 01:07:38;;;;;;;3.90;2.50;;;16.40;99.90;;;;;;5014161;28;20167;-81
2022/07/24 01:10:05;;;;;;;2.75;2.55;;;16.40;99.90;;;;;;5014037;28;20037;-81
2022/07/24 01:12:38;;;;;;;3.45;2.90;;;16.40;99.90;;;;;;5014104;28;20041;-82
2022/07/24 01:15:06;;;;;;;4.88;3.10;;;16.40;99.90;;;;;;5013628;28;20037;-81
2022/07/24 01:17:35;;;;;;;2.95;2.45;;;16.40;99.90;;;;;;5013991;28;20386;-81
2022/07/24 01:20:01;;;;;;;3.78;2.90;;;16.40;99.90;;;;;;4996221;28;20036;-82
2022/07/24 01:22:27;;;;;;;;;;;16.40;99.90;;;;;;4996769;28;20034;-81
2022/07/24 01:24:53;;;;;;;4.85;3.05;;;16.40;99.90;;;;;;5012405;28;19921;-81
2022/07/24 01:27:20;;;;;;;4.13;3.10;;;16.40;99.90;;;;;;5013788;28;20047;-81
2022/07/24 01:29:45;;;;;;;;;;;16.30;99.90;;;;;;5014420;28;20045;-81
2022/07/24 01:32:11;;;;;;;3.22;2.80;;;16.30;99.90;;;;;;5013345;28;19917;-81
2022/07/24 01:34:36;;;;;;;5.18;3.20;;;16.30;99.90;;;;;;4997419;28;20042;-80
2022/07/24 01:37:02;;;;;;;6.07;3.17;;;16.30;99.90;;;;;;4997311;28;20057;-81
2022/07/24 01:39:28;;;;;;;4.07;3.17;;;16.40;99.90;;;;;;5013624;28;20033;-81
2022/07/24 01:41:54;;;;;;;3.92;3.03;;;16.40;99.90;;;;;;5013537;28;20116;-81
2022/07/24 01:44:19;;;;;;;4.50;3.13;;;16.40;99.90;;;;;;5014108;28;20048;-82
2022/07/24 01:46:45;;;;;;;5.18;3.00;;;16.40;99.90;;;;;;5013602;28;20033;-82
2022/07/24 01:49:11;;;;;;;3.78;3.10;;;16.40;99.90;;;;;;5013291;28;20041;-82
2022/07/24 01:51:37;;;;;;;3.88;3.33;;;16.30;99.90;;;;;;5013649;28;20120;-81
2022/07/24 01:54:03;;;;;;;5.10;3.20;;;16.30;99.90;;;;;;5013075;28;20041;-80
2022/07/24 01:56:30;;;;;;;5.60;2.95;;;16.30;99.90;;;;;;5013868;28;20061;-81
2022/07/24 01:58:55;;;;;;;6.80;3.28;;;16.30;99.90;;;;;;5010780;28;20052;-81
2022/07/24 02:01:21;;;;;;;4.27;3.30;;;16.30;99.90;;;;;;4997229;28;20034;-81
2022/07/24 02:03:48;;;;;;;4.53;3.30;;;16.30;99.90;;;;;;4981160;28;20287;-81
2022/07/24 02:06:14;;;;;;;4.85;3.20;;;16.30;99.90;;;;;;4996699;28;20038;-81
2022/07/24 02:08:40;;;;;;;;;;;16.30;99.90;;;;;;5013841;28;20089;-81
2022/07/24 02:11:06;;;;;;;5.18;3.22;;;16.20;99.90;;;;;;5012932;28;19964;-81
2022/07/24 02:13:31;;;;;;;4.07;3.67;;;16.20;99.90;;;;;;5016174;28;20069;-81
2022/07/24 02:15:57;;;;;;;4.35;3.22;;;16.20;99.90;;;;;;5016695;28;20041;-80
2022/07/24 02:18:23;;;;;;;4.68;3.97;;;16.20;99.90;;;;;;5017474;28;20049;-80
2022/07/24 02:20:48;;;;;;;5.32;3.40;;;16.20;99.90;;;;;;5001146;28;20038;-81
2022/07/24 02:23:17;;;;;;;4.20;3.47;;;16.20;99.90;;;;;;5016859;28;20041;-81
2022/07/24 02:25:45;;;;;;;4.30;3.90;;;16.20;99.90;;;;;;4984982;28;20033;-81
2022/07/24 02:28:11;;;;;;;5.18;3.88;;;16.10;99.90;;;;;;5014883;28;20049;-81
2022/07/24 02:30:37;;;;;;;5.78;3.92;;;16.20;99.90;;;;;;5016969;28;20041;-81
2022/07/24 02:33:02;;;;;;;5.45;3.80;;;16.10;99.90;;;;;;5016545;28;20037;-81
2022/07/24 02:35:28;;;;;;;4.35;3.42;;;16.10;99.90;;;;;;4984421;28;20083;-80
2022/07/24 02:37:54;;;;;;;5.30;3.70;;;16.10;99.90;;;;;;5015706;28;20068;-80
2022/07/24 02:40:20;;;;;;;4.93;3.78;;;16.10;99.90;;;;;;5015555;28;20037;-81
2022/07/24 02:42:45;;;;;;;5.35;4.07;;;16.00;99.90;;;;;;5000776;28;20091;-82
2022/07/24 02:45:11;;;;;;;4.78;3.65;;;16.00;99.90;;;;;;5016680;28;20037;-81
2022/07/24 02:47:51;;;;;;;6.40;3.78;;;16.00;99.90;;;;;;5016055;28;20632;-82
2022/07/24 02:50:18;;;;;;;5.82;4.00;;;16.00;99.90;;;;;;5016553;28;20038;-81
2022/07/24 02:52:43;;;;;;;5.20;4.25;;;16.10;99.90;;;;;;5016920;28;20057;-80
2022/07/24 02:55:09;;;;;;;4.90;3.97;;;16.00;99.90;;;;;;5016475;28;20064;-81
2022/07/24 02:57:35;;;;;;;5.22;4.07;;;16.00;99.90;;;;;;5000734;28;20033;-80
2022/07/24 03:00:03;;;;;;;6.45;4.28;;;16.00;99.90;;;;;;4997860;28;20037;-81
2022/07/24 03:02:29;;;;;;;4.68;4.07;;;16.00;99.90;;;;;;5016600;28;20029;-81
2022/07/24 03:04:55;;;;;;;4.80;4.30;;;16.00;99.90;;;;;;5016678;28;20034;-81
2022/07/24 03:07:20;;;;;;;6.07;4.22;;;16.00;99.90;;;;;;4999732;28;20323;-81
2022/07/24 03:09:46;;;;;;;5.53;4.28;;;16.00;99.90;;;;;;5000160;28;20041;-81
2022/07/24 03:12:12;;;;;;;5.68;4.30;;;16.00;99.90;;;;;;5015981;28;20045;-81
2022/07/24 03:14:38;;;;;;;7.00;4.22;;;16.00;99.90;;;;;;5016236;28;20440;-81
2022/07/24 03:17:04;;;;;;;5.85;4.18;;;16.00;99.90;;;;;;5016177;28;20056;-82
2022/07/24 03:19:30;;;;;;;5.07;4.30;;;16.00;99.90;;;;;;5013843;28;20049;-81
2022/07/24 03:21:55;;;;;;;5.53;4.13;;;16.00;99.90;;;;;;4999777;28;20037;-81
2022/07/24 03:24:21;;;;;;;6.18;4.30;;;16.00;99.90;;;;;;5015025;28;20549;-82
2022/07/24 03:26:47;;;;;;;5.75;4.20;;;15.90;99.90;;;;;;5015802;28;20033;-82
2022/07/24 03:29:12;;;;;;;6.15;4.60;;;15.90;99.90;;;;;;4999136;28;20049;-82
2022/07/24 03:31:38;;;;;;;6.82;4.50;;;15.90;99.90;;;;;;4999729;28;20045;-81
2022/07/24 03:34:04;;;;;;;6.80;4.82;;;15.90;99.90;;;;;;5015406;28;20054;-81
2022/07/24 03:36:30;;;;;;;5.40;4.57;;;15.90;99.90;;;;;;5015740;28;20048;-81
2022/07/24 03:38:55;;;;;;;5.75;4.57;;;15.90;99.90;;;;;;5013310;28;20137;-81
2022/07/24 03:41:21;;;;;;;5.10;4.25;;;15.90;99.90;;;;;;4967024;28;20038;-81
2022/07/24 03:43:47;;;;;;;5.28;4.75;;;15.90;99.90;;;;;;5016051;28;20040;-81
2022/07/24 03:46:12;;;;;;;6.13;4.85;;;15.90;99.90;;;;;;4998700;28;20042;-80
2022/07/24 03:48:38;;;;;;;6.47;5.20;;;16.00;99.90;;;;;;4999307;28;20087;-82
2022/07/24 03:51:04;;;;;;;5.05;4.53;;;16.00;99.90;;;;;;5015476;28;20034;-81
2022/07/24 03:53:29;;;;;;;6.55;4.90;;;16.00;99.90;;;;;;5015626;28;20059;-81
2022/07/24 03:55:55;;;;;;;6.15;4.93;;;16.00;99.90;;;;;;5015658;28;20099;-82
2022/07/24 03:58:21;;;;;;;6.75;5.30;;;16.00;99.90;;;;;;5015263;28;20556;-82
2022/07/24 04:00:46;;;;;;;7.40;5.18;;;16.00;99.90;;;;;;4999322;28;20116;-82
2022/07/24 04:03:12;;;;;;;7.20;5.43;;;16.00;99.90;;;;;;4997722;28;20068;-82
2022/07/24 04:05:38;;;;;;;6.32;5.15;;;16.00;99.90;;;;;;5015554;28;20037;-81
2022/07/24 04:08:03;;;;;;;7.05;5.45;;;16.10;99.90;;;;;;5015490;28;20132;-81
2022/07/24 04:10:29;;;;;;;7.50;5.07;;;16.00;99.90;;;;;;4998665;28;20076;-81
2022/07/24 04:12:55;;;;;;;6.40;4.78;;;16.00;99.90;;;;;;5015155;28;20044;-81
2022/07/24 04:15:20;;;;;;;7.40;5.28;;;16.00;99.90;;;;;;4982078;28;20049;-81
2022/07/24 04:17:46;;;;;;;5.68;4.80;;;16.10;99.90;;;;;;5015074;28;20045;-82
2022/07/24 04:20:12;;;;;;;6.78;5.25;;;16.00;99.90;;;;;;5014480;28;20037;-82
2022/07/24 04:22:38;;;;;;;6.55;5.07;;;16.10;99.90;;;;;;4998757;28;20036;-81
2022/07/24 04:25:05;;;;;;;5.80;4.70;;;16.10;99.90;;;;;;4998923;28;20037;-82
2022/07/24 04:27:31;;;;;;;6.60;5.43;;;16.10;99.90;;;;;;5014778;28;20453;-81
2022/07/24 04:29:57;;;;;;;6.05;5.07;;;16.10;99.90;;;;;;5014921;28;20080;-82
2022/07/24 04:32:24;;;;;;;7.07;5.38;;;16.10;99.90;;;;;;5014483;28;20041;-82
2022/07/24 04:34:50;;;;;;;5.65;5.05;;;16.10;99.90;;;;;;5013978;28;20053;-81
2022/07/24 04:37:16;;;;;;;8.05;5.68;;;16.10;99.90;;;;;;5014363;28;20068;-82
2022/07/24 04:39:41;;;;;;;6.18;5.40;;;16.20;99.90;;;;;;5014527;28;20052;-81
2022/07/24 04:42:07;;;;;;;6.43;4.95;;;16.20;99.90;;;;;;5014867;28;20112;-81
2022/07/24 04:44:33;;;;;;;9.32;5.85;;;16.20;99.90;;;;;;4981654;28;20037;-81
2022/07/24 04:46:58;;;;;;;7.43;5.50;;;16.20;99.90;;;;;;5014991;28;20053;-82
2022/07/24 04:49:24;;;;;;;6.45;5.20;;;16.20;99.90;;;;;;5014159;28;20106;-82
2022/07/24 04:51:50;;;;;;;7.15;4.95;;;16.30;99.90;;;;;;5014647;28;20045;-81
2022/07/24 04:54:15;;;;;;;6.50;5.25;;;16.30;99.90;;;;;;5013674;28;20045;-82
2022/07/24 04:56:41;;;;;;;5.57;4.85;;;16.30;99.90;;;;;;4981941;28;20033;-82
2022/07/24 04:59:07;;;;;;;6.43;4.80;;;16.40;99.90;;;;;;5014401;28;20038;-81
2022/07/24 05:01:32;;;;;;;5.63;4.80;;;16.40;99.90;;;;;;5013884;28;20099;-81
2022/07/24 05:03:58;;;;;;;6.93;5.05;;;16.40;99.90;;;;;;5013932;28;20041;-81
2022/07/24 05:06:24;;;;;;;5.90;5.22;;;16.40;99.90;;;;;;4997571;28;20481;-82
2022/07/24 05:08:50;;;;;;;6.28;5.15;;;16.50;99.90;;;;;;5014171;28;20128;-81
2022/07/24 05:11:16;;;;;;;5.90;4.93;;;16.50;99.90;;;;;;4997759;28;20469;-83
2022/07/24 05:13:42;;;;;;;5.70;4.88;;;16.60;99.90;;;;;;5013913;28;20037;-81
2022/07/24 05:16:08;;;;;;;6.45;5.13;;;16.70;99.90;;;;;;5014351;28;20436;-81
2022/07/24 05:18:33;;;;;;;5.72;4.88;;;16.80;99.90;;;;;;4997453;28;20044;-82
2022/07/24 05:20:59;;;;;;;6.82;5.55;;;16.90;99.90;;;;;;5014113;28;20122;-82
2022/07/24 05:23:25;;;;;;;7.60;5.45;;;16.90;99.90;;;;;;5013879;28;20456;-82
2022/07/24 05:25:51;;;;;;;8.65;5.88;;;17.00;99.90;;;;;;5013719;28;20124;-82
2022/07/24 05:28:17;;;;;;;6.68;5.32;;;17.10;99.90;;;;;;4997448;28;20104;-82
2022/07/24 05:30:43;;;;;;;;;;;17.20;99.90;;;;;;4998627;28;20520;-82
2022/07/24 05:33:09;;;;;;;7.63;5.72;;;17.30;99.90;;;;;;5014053;28;19924;-82
2022/07/24 05:35:34;;;;;;;7.43;5.50;;;17.50;99.90;;;;;;5013875;28;20179;-82
2022/07/24 05:38:00;;;;;;;6.07;5.43;;;17.60;99.90;;;;;;4981423;28;20037;-82
2022/07/24 05:40:26;;;;;;;7.65;5.32;;;17.60;99.90;;;;;;5013535;28;20460;-82
2022/07/24 05:42:51;;;;;;;8.18;5.88;;;17.70;99.90;;;;;;5011830;28;20044;-81
2022/07/24 05:45:17;;;;;;;7.68;5.95;;;17.80;99.90;;;;;;4997027;28;20038;-81
2022/07/24 05:47:43;;;;;;;8.90;6.25;;;17.80;99.90;;;;;;5013581;28;20060;-81
2022/07/24 05:50:10;;;;;;;6.95;6.22;;;17.90;99.90;;;;;;5013695;28;20076;-81
2022/07/24 05:52:36;;;;;;;8.18;6.22;;;17.90;99.90;;;;;;5013907;28;20075;-81
2022/07/24 05:55:03;;;;;;;6.85;6.03;;;18.10;99.90;;;;;;5013845;28;20061;-82
2022/07/24 05:57:28;;;;;;;7.70;6.25;;;18.20;99.90;;;;;;5013442;28;20045;-82
2022/07/24 05:59:54;;;;;;;8.90;6.53;;;18.30;99.90;;;;;;4997224;28;20041;-81
2022/07/24 06:02:19;;;;;;;7.95;6.95;;;18.40;99.90;;;;;;5013782;28;20089;-81
2022/07/24 06:04:45;;;;;;;8.25;6.88;;;18.40;99.90;;;;;;4997328;28;20037;-82
2022/07/24 06:07:11;;;;;;;8.40;6.60;;;18.60;99.90;;;;;;4980678;28;20034;-81
2022/07/24 06:09:38;;;;;;;8.75;6.63;;;19.00;99.90;;;;;;4996739;28;20071;-81
2022/07/24 06:12:05;;;;;;;9.07;6.20;;;19.50;99.90;;;;;;5013693;28;20049;-81
2022/07/24 06:14:31;;;;;;;9.82;7.38;;;20.00;99.90;;;;;;5013167;28;20555;-81
2022/07/24 06:16:57;;;;;;;7.03;6.28;;;20.40;99.90;;;;;;4997280;28;20045;-81
2022/07/24 06:19:23;;;;;;;9.07;7.13;;;20.70;99.90;;;;;;4996474;28;20053;-81
2022/07/24 06:21:49;;;;;;;8.02;6.75;;;20.80;99.90;;;;;;5000820;28;20044;-81
2022/07/24 06:24:14;;;;;;;9.95;6.88;;;20.90;99.90;;;;;;5015313;28;20029;-80
2022/07/24 06:26:40;;;;;;;8.35;7.07;;;21.10;99.90;;;;;;5013605;28;20056;-82
2022/07/24 06:29:06;;;;;;;9.93;7.07;;;21.40;99.90;;;;;;5013490;28;20490;-81
2022/07/24 06:31:31;;;;;;;9.90;6.90;;;21.50;99.90;;;;;;5010354;28;20458;-82
2022/07/24 06:33:57;;;;;;;10.15;7.70;;;21.70;99.90;;;;;;4980539;28;20179;-81
2022/07/24 06:36:23;;;;;;;8.68;6.93;;;21.80;99.90;;;;;;5012856;28;20056;-82
2022/07/24 06:38:49;;;;;;;12.15;7.60;;;22.00;99.90;;;;;;5013231;28;20038;-82
2022/07/24 06:41:14;;;;;;;9.35;7.65;;;22.20;99.90;;;;;;4996464;28;20072;-82
2022/07/24 06:43:40;;;;;;;11.35;7.95;;;22.20;99.90;;;;;;4995876;28;20041;-82
2022/07/24 06:46:06;;;;;;;9.48;8.07;;;22.40;99.90;;;;;;5012381;28;20041;-81
2022/07/24 06:48:32;;;;;;;9.55;7.45;;;22.50;99.90;;;;;;5012058;28;20047;-83
2022/07/24 06:50:58;;;;;;;9.13;7.55;;;22.70;99.90;;;;;;5012344;28;20037;-79
2022/07/24 06:53:24;;;;;;;9.88;7.75;;;22.80;99.90;;;;;;5013023;28;20116;-80
2022/07/24 06:55:53;;;;;;;10.50;8.05;;;22.90;99.90;;;;;;5013149;28;20045;-81
2022/07/24 07:02:09;;;;;;;13.88;7.90;;;23.00;99.90;;;;;;5032455;22;20076;-79
2022/07/24 07:04:35;;;;;;;11.05;8.57;;;23.40;99.90;;;;;;5002050;23;20046;-80
2022/07/24 07:07:01;;;;;;;;;;;23.40;99.90;;;;;;4996944;28;20111;-81
2022/07/24 07:09:27;;;;;;;11.63;8.18;;;23.40;99.90;;;;;;5013052;28;19960;-80
2022/07/24 07:11:52;;;;;;;;;;;23.50;99.90;;;;;;5014014;28;20758;-80
2022/07/24 07:14:18;;;;;;;10.27;8.02;;;23.40;99.90;;;;;;5013120;28;20313;-80
2022/07/24 07:16:44;;;;;;;10.25;8.18;;;23.30;99.90;;;;;;5012534;28;20137;-80
2022/07/24 07:19:10;;;;;;;10.57;8.25;;;23.20;99.90;;;;;;5013233;28;20546;-80
2022/07/24 07:21:37;;;;;;;11.50;7.75;;;23.20;99.90;;;;;;5012795;28;20050;-81
2022/07/24 07:24:03;;;;;;;9.23;7.63;;;23.20;99.90;;;;;;5013597;28;20561;-81
2022/07/24 07:26:29;;;;;;;10.43;7.75;;;23.30;99.90;;;;;;4996731;28;20502;-81
2022/07/24 07:28:54;;;;;;;;;;;23.60;99.90;;;;;;5013450;28;20045;-80
2022/07/24 07:31:21;;;;;;;12.95;8.07;;;23.90;99.90;;;;;;5010505;28;19933;-80
2022/07/24 07:33:47;;;;;;;9.45;7.28;;;24.30;99.90;;;;;;5012648;28;20120;-81
2022/07/24 07:36:13;;;;;;;;;;;24.70;99.90;;;;;;4996932;28;20124;-80
2022/07/24 07:38:39;;;;;;;12.38;6.55;;;25.20;99.90;;;;;;5011891;28;19976;-80
2022/07/24 07:41:05;;;;;;;7.57;5.50;;;25.50;99.90;;;;;;5013147;28;20046;-80
2022/07/24 07:43:31;;;;;;;;;;;25.60;99.90;;;;;;4996524;28;20044;-81
2022/07/24 07:45:57;;;;;;;7.95;3.78;;;25.50;99.90;;;;;;5012680;28;20409;-82
2022/07/24 07:48:22;;;;;;;;;;;25.10;99.90;;;;;;5013012;28;20050;-80
2022/07/24 07:50:48;;;;;;;5.28;3.90;;;24.70;99.90;;;;;;4979816;28;19928;-80
2022/07/24 07:53:13;;;;;;;;;;;24.50;99.90;;;;;;5013256;28;20056;-80
2022/07/24 07:55:39;;;;;;;3.30;2.60;;;24.40;99.90;;;;;;5012040;28;19921;-80
2022/07/24 07:58:05;;;;;;;5.22;2.75;;;24.30;99.90;;;;;;5012285;28;20037;-80
2022/07/24 08:00:32;;;;;;;3.20;2.72;;;23.90;99.90;;;;;;5011886;28;20076;-81
2022/07/24 08:02:58;;;;;;;5.18;3.05;;;23.80;99.90;;;;;;4996231;28;20475;-80
2022/07/24 08:05:24;;;;;;;;;;;23.70;99.90;;;;;;5017989;28;20069;-79
2022/07/24 08:07:49;;;;;;;7.38;2.92;;;23.70;99.90;;;;;;5011565;28;19917;-80
2022/07/24 08:10:15;;;;;;;3.80;2.75;;;23.90;99.90;;;;;;4994425;28;20034;-80
2022/07/24 08:12:41;;;;;;;3.58;2.88;;;24.40;99.90;;;;;;5011518;28;20041;-80
2022/07/24 08:15:07;;;;;;;;;;;24.90;99.90;;;;;;4996072;28;20045;-81
2022/07/24 08:17:33;;;;;;;4.55;2.80;;;25.40;99.90;;;;;;5011817;28;19926;-82
2022/07/24 08:19:58;;;;;;;;;;;25.90;99.90;;;;;;4996471;28;20060;-82
2022/07/24 08:22:24;;;;;;;4.22;2.88;;;26.30;99.90;;;;;;4995945;28;19917;-83
2022/07/24 08:24:50;;;;;;;;;;;26.50;99.90;;;;;;5013313;28;20041;-81
2022/07/24 08:27:15;;;;;;;5.00;2.67;;;26.60;99.90;;;;;;5012349;28;19917;-82
2022/07/24 08:29:41;;;;;;;;;;;26.40;99.90;;;;;;4995825;28;20096;-83
2022/07/24 08:32:06;;;;;;;3.42;2.90;;;26.40;99.90;;;;;;5011757;28;19923;-82
2022/07/24 08:34:32;;;;;;;4.28;3.00;;;26.40;99.90;;;;;;5011614;28;20050;-82
2022/07/24 08:36:58;;;;;;;;;;;26.50;99.90;;;;;;4995850;28;20038;-83
2022/07/24 08:39:23;;;;;;;4.60;2.95;;;26.50;99.90;;;;;;5009126;28;20374;-82
2022/07/24 08:41:49;;;;;;;;;;;26.40;99.90;;;;;;5011713;28;20043;-87
2022/07/24 08:44:14;;;;;;;6.85;3.05;;;26.30;99.90;;;;;;4995181;28;19964;-85
2022/07/24 08:46:41;;;;;;;;;;;26.20;99.90;;;;;;4994560;28;20109;-84
2022/07/24 08:49:12;;;;;;;4.47;3.05;;;26.10;99.90;;;;;;5009209;28;19925;-89
2022/07/24 08:51:40;;;;;;;5.43;2.85;;;26.20;99.90;;;;;;5011847;28;20069;-85
2022/07/24 08:54:09;;;;;;;3.42;2.67;;;26.30;99.90;;;;;;5012894;28;20124;-87
2022/07/24 08:56:38;;;;;;;5.63;2.63;;;26.50;99.90;;;;;;5011981;28;20124;-87
2022/07/24 08:59:04;;;;;;;3.92;2.65;;;26.70;99.90;;;;;;5016445;28;20037;-86
2022/07/24 09:01:30;;;;;;;3.70;2.78;;;26.80;99.90;;;;;;4995567;28;20088;-87
2022/07/24 09:03:55;;;;;;;;;;;26.90;99.50;;;;;;4995445;28;20073;-87
2022/07/24 09:06:21;;;;;;;6.25;2.83;;;26.80;99.50;;;;;;4994833;28;19941;-84
2022/07/24 09:09:01;;;;;;;;;;;26.80;99.90;;;;;;4978848;28;20042;-85
2022/07/24 09:11:29;;;;;;;5.00;2.75;;;26.70;99.90;;;;;;5010914;28;19917;-84
2022/07/24 09:16:45;;;;;;;5.55;3.10;;;26.70;99.90;;;;;;5012112;28;20088;-82
2022/07/24 09:19:13;;;;;;;3.58;2.60;;;26.70;99.90;;;;;;4999194;28;20053;-85
2022/07/24 09:21:40;;;;;;;6.72;2.95;;;26.70;99.90;;;;;;5010446;28;20041;-86
2022/07/24 09:24:15;;;;;;;3.92;2.47;;;26.80;99.90;;;;;;5009877;28;20061;-86
2022/07/24 09:26:51;;;;;;;5.60;2.80;;;27.00;99.90;;;;;;5011640;28;20037;-87
2022/07/24 09:29:19;;;;;;;7.25;3.00;;;27.10;99.90;;;;;;5011439;28;20040;-86
2022/07/24 09:31:55;;;;;;;4.65;2.88;;;27.20;99.90;;;;;;4994678;28;20092;-88
2022/07/24 09:34:22;;;;;;;4.55;2.58;;;27.60;99.90;;;;;;5009139;28;20034;-86
2022/07/24 09:37:00;;;;;;;5.38;2.60;;;28.10;99.90;;;;;;5006731;28;20065;-90
2022/07/24 09:39:28;;;;;;;5.55;2.50;;;28.50;99.60;;;;;;4997966;28;20042;-89
2022/07/24 09:41:56;;;;;;;3.85;2.22;;;28.90;99.00;;;;;;4979321;28;20038;-91
2022/07/24 09:44:23;;;;;;;7.18;2.50;;;28.90;98.60;;;;;;4984905;28;20109;-90
2022/07/24 09:47:02;;;;;;;3.78;2.30;;;29.00;98.70;;;;;;4996922;28;20521;-92
2022/07/24 09:49:29;;;;;;;4.05;2.30;;;29.00;98.90;;;;;;5011631;28;20048;-93
2022/07/24 09:52:15;;;;;;;2.72;2.40;;;29.00;98.70;;;;;;5011921;28;20115;-90
2022/07/24 09:54:47;;;;;;;2.80;2.22;;;29.30;98.50;;;;;;4995476;28;20121;-84
2022/07/24 09:57:24;;;;;;;3.30;2.22;;;29.60;98.40;;;;;;5010311;28;20577;-83
2022/07/24 09:59:58;;;;;;;4.93;1.90;;;29.60;98.50;;;;;;5008161;28;20375;-83
2022/07/24 10:02:27;;;;;;;5.68;1.80;;;29.80;98.00;;;;;;5008036;28;20030;-83
2022/07/24 10:04:53;;;;;;;3.03;1.88;;;30.00;98.50;;;;;;4992388;28;20061;-87
2022/07/24 10:07:21;;;;;;;3.75;1.70;;;30.00;97.80;;;;;;4997968;28;20120;-85
2022/07/24 10:09:50;;;;;;;4.13;1.80;;;30.30;97.40;;;;;;4977383;28;20049;-86
2022/07/24 10:12:19;;;;;;;2.03;1.60;;;30.30;96.50;;;;;;4994380;28;20042;-85
2022/07/24 10:14:47;;;;;;;3.53;1.70;;;29.80;97.50;;;;;;5010496;28;20038;-87
2022/07/24 10:17:15;;;;;;;2.58;1.95;;;29.50;97.20;;;;;;4994485;28;20045;-81
2022/07/24 10:19:49;;;;;;;6.38;1.73;;;29.70;97.70;;;;;;5010266;28;20153;-86
2022/07/24 10:22:21;;;;;;;4.45;2.10;;;30.00;96.90;;;;;;5011416;28;20038;-88
2022/07/24 10:25:06;;;;;;;3.83;1.98;;;29.70;96.70;;;;;;4991849;28;20033;-87
2022/07/24 10:27:44;;;;;;;2.67;1.85;;;29.50;97.20;;;;;;5010556;28;20039;-85
2022/07/24 10:30:11;;;;;;;3.67;2.00;;;29.20;97.60;;;;;;5010604;28;20045;-86
2022/07/24 10:32:37;;;;;;;3.67;1.80;;;28.90;97.00;;;;;;5010759;28;20072;-83
2022/07/24 10:35:25;;;;;;;3.55;1.70;;;28.70;97.00;;;;;;5013768;28;20548;-86
2022/07/24 10:38:16;;;;;;;3.13;1.80;;;28.60;97.80;;;;;;4998223;28;20045;-86
2022/07/24 10:40:51;;;;;;;2.40;1.80;;;28.90;97.80;;;;;;5015236;28;20041;-85
2022/07/24 10:43:18;;;;;;;5.72;2.03;;;29.40;97.80;;;;;;5014314;28;20034;-85
2022/07/24 10:46:07;;;;;;;2.97;1.85;;;29.80;97.30;;;;;;5009282;28;20052;-84
2022/07/24 10:48:39;;;;;;;4.75;1.70;;;30.00;97.70;;;;;;5029088;28;20136;-83
2022/07/24 10:51:10;;;;;;;4.03;1.77;;;30.10;97.30;;;;;;5013344;28;20050;-82
2022/07/24 10:53:39;;;;;;;4.50;1.70;;;30.50;96.10;;;;;;5013924;28;20045;-83
2022/07/24 10:56:23;;;;;;;4.95;1.90;;;30.60;95.60;;;;;;5011844;28;20531;-82
2022/07/24 10:58:59;;;;;;;3.80;2.00;;;30.80;96.10;;;;;;5029383;28;20041;-84
2022/07/24 11:01:34;;;;;;;3.65;1.65;;;30.70;95.70;;;;;;5012616;28;20186;-85
2022/07/24 11:04:19;;;;;;;4.40;1.67;;;30.50;95.80;;;;;;4996845;28;20062;-86
2022/07/24 11:06:47;;;;;;;3.38;1.65;;;30.00;95.80;;;;;;5013370;28;20125;-86
2022/07/24 11:09:13;;;;;;;6.13;1.77;;;29.80;96.10;;;;;;5013572;28;20660;-87
2022/07/24 11:11:51;;;;;;;3.70;1.80;;;29.90;95.70;;;;;;4997649;28;20125;-83
2022/07/24 11:14:25;;;;;;;2.65;1.60;;;30.20;95.90;;;;;;5014311;28;20076;-83
2022/07/24 11:16:52;;;;;;;3.17;1.60;;;30.40;95.60;;;;;;4995834;28;20124;-85
2022/07/24 11:19:17;;;;;;;2.80;1.73;;;30.60;96.40;;;;;;4997913;28;20473;-84
2022/07/24 11:21:46;;;;;;;6.80;1.80;;;30.90;95.80;;;;;;5015996;28;20065;-92
2022/07/24 11:24:25;;;;;;;4.78;1.83;;;31.10;94.60;;;;;;4999372;28;20120;-83
2022/07/24 11:27:04;;;;;;;5.78;1.63;;;31.10;94.40;;;;;;5011937;28;20040;-86
2022/07/24 11:29:35;;;;;;;3.40;1.60;;;31.10;95.40;;;;;;5012603;28;20037;-87
2022/07/24 11:32:14;;;;;;;2.63;1.60;;;31.10;94.70;;;;;;4993293;28;20034;-83
2022/07/24 11:34:44;;;;;;;4.50;1.58;;;31.10;95.70;;;;;;5013235;28;20037;-81
2022/07/24 11:37:10;;;;;;;3.50;1.83;;;31.30;94.90;;;;;;5027723;28;20037;-86
2022/07/24 11:39:39;;;;;;;2.58;1.80;;;31.50;95.10;;;;;;4997070;28;20034;-83
2022/07/24 11:42:09;;;;;;;3.03;1.48;;;31.60;94.70;;;;;;5011628;28;20513;-82
2022/07/24 11:44:39;;;;;;;2.47;1.52;;;31.80;94.50;;;;;;5011767;28;20387;-82
2022/07/24 11:47:16;;;;;;;3.35;1.80;;;32.00;94.20;;;;;;5012378;28;20508;-82
2022/07/24 11:49:55;;;;;;;2.50;1.70;;;32.20;94.10;;;;;;5012506;28;20065;-82
2022/07/24 11:52:31;;;;;;;3.15;1.63;;;32.10;94.20;;;;;;4996762;28;20033;-82
2022/07/24 11:55:00;;;;;;;3.97;1.63;;;32.30;94.00;;;;;;5012571;28;20100;-82
2022/07/24 11:57:35;;;;;;;4.50;2.10;;;32.20;93.90;;;;;;5012637;28;20050;-81
2022/07/24 12:00:01;;;;;;;6.00;1.80;;;32.10;94.20;;;;;;5011236;28;20052;-81
2022/07/24 12:02:27;;;;;;;3.83;1.60;;;32.20;94.30;;;;;;5012428;28;20757;-81
2022/07/24 12:04:53;;;;;;;3.33;1.67;;;32.30;93.30;;;;;;5013696;28;20084;-81
2022/07/24 12:07:24;;;;;;;3.42;1.65;;;32.50;93.80;;;;;;4999307;28;20037;-81
2022/07/24 12:09:56;;;;;;;4.63;1.42;;;32.40;93.40;;;;;;5011682;28;20045;-81
2022/07/24 12:12:24;;;;;;;9.13;2.13;;;32.50;93.60;;;;;;5013542;28;20068;-81
2022/07/24 12:15:07;;;;;;;3.03;1.75;;;32.50;93.40;;;;;;5011813;28;20033;-81
2022/07/24 12:17:35;;;;;;;4.72;1.85;;;32.40;93.10;;;;;;5011807;28;20268;-81
2022/07/24 12:20:06;;;;;;;2.33;1.67;;;32.60;93.20;;;;;;4995350;28;20072;-81
2022/07/24 12:22:32;;;;;;;3.83;1.85;;;32.70;93.30;;;;;;4996391;28;20034;-81
2022/07/24 12:24:58;;;;;;;3.97;1.60;;;32.70;93.20;;;;;;5016463;28;20041;-82
2022/07/24 12:27:36;;;;;;;5.63;1.90;;;32.50;92.90;;;;;;5011686;28;20065;-82
2022/07/24 12:30:03;;;;;;;3.38;1.70;;;32.60;93.30;;;;;;5011646;28;20394;-82
2022/07/24 12:32:29;;;;;;;5.35;2.03;;;32.80;93.20;;;;;;5011584;28;20052;-82
2022/07/24 12:34:55;;;;;;;3.88;1.70;;;32.80;92.80;;;;;;5011452;28;20046;-82
2022/07/24 12:37:22;;;;;;;3.85;1.60;;;32.90;92.60;;;;;;4995719;28;20045;-82
2022/07/24 12:39:52;;;;;;;1.98;1.55;;;32.90;92.40;;;;;;5011810;28;20046;-82
2022/07/24 12:42:28;;;;;;;2.95;1.60;;;33.00;92.20;;;;;;4995521;28;20060;-83
2022/07/24 12:44:54;;;;;;;2.50;1.55;;;33.10;92.30;;;;;;5010256;28;20116;-82
2022/07/24 12:47:19;;;;;;;2.50;1.73;;;33.10;92.50;;;;;;5011358;28;20121;-81
2022/07/24 12:49:50;;;;;;;3.22;1.65;;;33.10;92.10;;;;;;4979704;28;20045;-89
2022/07/24 12:52:24;;;;;;;2.65;1.60;;;33.30;92.00;;;;;;4995414;28;20056;-89
2022/07/24 12:54:51;;;;;;;2.92;1.70;;;33.20;92.00;;;;;;5012221;28;20038;-86
2022/07/24 12:57:20;;;;;;;2.58;1.63;;;33.30;92.10;;;;;;4994239;28;20041;-83
2022/07/24 12:59:48;;;;;;;2.90;1.73;;;33.50;92.00;;;;;;4994767;28;20163;-89
2022/07/24 13:02:24;;;;;;;2.85;1.60;;;33.50;91.70;;;;;;5016995;28;20125;-86